sensor_id;sensor_type;location;lat;lon;timestamp;pressure;altitude;pressure_sealevel;temperature;humidity
75026;BME280;63591;50.080;8.286;2022-12-20T00:00:43;100193.22;;;10.00;50.62
75026;BME280;63591;50.080;8.286;2022-12-20T00:03:08;100189.63;;;10.01;50.59
75026;BME280;63591;50.080;8.286;2022-12-20T00:05:41;100176.63;;;9.99;50.65
75026;BME280;63591;50.080;8.286;2022-12-20T00:08:08;100181.63;;;10.03;50.58
75026;BME280;63591;50.080;8.286;2022-12-20T00:10:41;100175.66;;;10.01;50.62
75026;BME280;63591;50.080;8.286;2022-12-20T00:13:08;100165.03;;;10.02;50.96
75026;BME280;63591;50.080;8.286;2022-12-20T00:15:33;100173.88;;;10.01;50.64
75026;BME280;63591;50.080;8.286;2022-12-20T00:17:59;100158.16;;;10.01;50.69
75026;BME280;63591;50.080;8.286;2022-12-20T00:20:26;100149.44;;;10.01;50.55
75026;BME280;63591;50.080;8.286;2022-12-20T00:22:52;100144.06;;;10.02;50.71
75026;BME280;63591;50.080;8.286;2022-12-20T00:25:18;100153.75;;;10.02;50.81
75026;BME280;63591;50.080;8.286;2022-12-20T00:27:45;100152.78;;;10.03;50.63
75026;BME280;63591;50.080;8.286;2022-12-20T00:30:11;100159.78;;;10.02;50.84
75026;BME280;63591;50.080;8.286;2022-12-20T00:32:36;100146.69;;;10.02;50.93
75026;BME280;63591;50.080;8.286;2022-12-20T00:35:02;100152.91;;;10.01;50.76
75026;BME280;63591;50.080;8.286;2022-12-20T00:37:27;100150.16;;;10.03;50.70
75026;BME280;63591;50.080;8.286;2022-12-20T00:39:53;100147.66;;;10.01;50.67
75026;BME280;63591;50.080;8.286;2022-12-20T00:42:18;100149.31;;;10.02;50.87
75026;BME280;63591;50.080;8.286;2022-12-20T00:44:43;100142.28;;;10.03;50.78
75026;BME280;63591;50.080;8.286;2022-12-20T00:47:09;100149.19;;;10.04;50.72
75026;BME280;63591;50.080;8.286;2022-12-20T00:49:34;100139.66;;;10.03;50.79
75026;BME280;63591;50.080;8.286;2022-12-20T00:51:59;100144.06;;;10.02;50.68
75026;BME280;63591;50.080;8.286;2022-12-20T00:54:25;100144.91;;;10.03;50.94
75026;BME280;63591;50.080;8.286;2022-12-20T00:56:50;100147.53;;;10.03;50.84
75026;BME280;63591;50.080;8.286;2022-12-20T00:59:15;100150.16;;;10.03;50.83
75026;BME280;63591;50.080;8.286;2022-12-20T01:01:41;100148.50;;;10.02;50.90
75026;BME280;63591;50.080;8.286;2022-12-20T01:04:06;100149.31;;;10.02;50.74
75026;BME280;63591;50.080;8.286;2022-12-20T01:06:32;100141.44;;;10.02;51.01
75026;BME280;63591;50.080;8.286;2022-12-20T01:08:58;100140.63;;;10.02;50.85
75026;BME280;63591;50.080;8.286;2022-12-20T01:11:27;100138.81;;;10.02;50.85
75026;BME280;63591;50.080;8.286;2022-12-20T01:13:55;100138.81;;;10.02;50.96
75026;BME280;63591;50.080;8.286;2022-12-20T01:16:22;100151.94;;;10.02;51.12
75026;BME280;63591;50.080;8.286;2022-12-20T01:18:49;100150.16;;;10.03;50.89
75026;BME280;63591;50.080;8.286;2022-12-20T01:21:16;100142.41;;;10.01;50.97
75026;BME280;63591;50.080;8.286;2022-12-20T01:23:42;100151.94;;;10.02;50.98
75026;BME280;63591;50.080;8.286;2022-12-20T01:26:12;100158.00;;;10.03;51.02
75026;BME280;63591;50.080;8.286;2022-12-20T01:28:40;100154.41;;;10.04;51.02
75026;BME280;63591;50.080;8.286;2022-12-20T01:31:07;100151.00;;;10.03;50.98
75026;BME280;63591;50.080;8.286;2022-12-20T01:33:33;100145.75;;;10.03;51.05
75026;BME280;63591;50.080;8.286;2022-12-20T01:36:01;100159.66;;;10.04;50.86
75026;BME280;63591;50.080;8.286;2022-12-20T01:38:27;100152.63;;;10.04;50.95
75026;BME280;63591;50.080;8.286;2022-12-20T01:40:53;100148.22;;;10.05;50.99
75026;BME280;63591;50.080;8.286;2022-12-20T01:43:19;100150.00;;;10.04;51.03
75026;BME280;63591;50.080;8.286;2022-12-20T01:45:45;100139.53;;;10.04;50.99
75026;BME280;63591;50.080;8.286;2022-12-20T01:48:13;100122.00;;;10.05;50.98
75026;BME280;63591;50.080;8.286;2022-12-20T01:50:40;100123.78;;;10.04;51.02
75026;BME280;63591;50.080;8.286;2022-12-20T01:53:06;100132.50;;;10.05;51.03
75026;BME280;63591;50.080;8.286;2022-12-20T01:55:31;100128.06;;;10.05;51.11
75026;BME280;63591;50.080;8.286;2022-12-20T01:58:05;100115.91;;;10.04;51.09
75026;BME280;63591;50.080;8.286;2022-12-20T02:00:32;100107.91;;;10.06;51.05
75026;BME280;63591;50.080;8.286;2022-12-20T02:03:00;100106.09;;;10.06;50.93
75026;BME280;63591;50.080;8.286;2022-12-20T02:05:33;100098.41;;;10.05;51.19
75026;BME280;63591;50.080;8.286;2022-12-20T02:07:59;100096.59;;;10.05;51.01
75026;BME280;63591;50.080;8.286;2022-12-20T02:10:34;100095.63;;;10.06;51.18
75026;BME280;63591;50.080;8.286;2022-12-20T02:13:08;100096.47;;;10.07;51.00
75026;BME280;63591;50.080;8.286;2022-12-20T02:26:57;100071.19;;;10.06;51.17
75026;BME280;63591;50.080;8.286;2022-12-20T02:32:24;100062.34;;;10.07;51.21
75026;BME280;63591;50.080;8.286;2022-12-20T02:34:50;100077.84;;;10.10;50.95
75026;BME280;63591;50.080;8.286;2022-12-20T02:37:16;100063.19;;;10.07;51.16
75026;BME280;63591;50.080;8.286;2022-12-20T02:39:43;100062.34;;;10.07;51.15
75026;BME280;63591;50.080;8.286;2022-12-20T02:42:12;100064.16;;;10.06;51.25
75026;BME280;63591;50.080;8.286;2022-12-20T02:44:48;100063.34;;;10.06;51.22
75026;BME280;63591;50.080;8.286;2022-12-20T02:47:38;100062.34;;;10.07;51.33
75026;BME280;63591;50.080;8.286;2022-12-20T02:50:06;100065.81;;;10.07;51.35
75026;BME280;63591;50.080;8.286;2022-12-20T02:52:32;100052.72;;;10.07;51.29
75026;BME280;63591;50.080;8.286;2022-12-20T02:54:58;100047.47;;;10.07;51.15
75026;BME280;63591;50.080;8.286;2022-12-20T02:57:44;100049.38;;;10.05;51.33
75026;BME280;63591;50.080;8.286;2022-12-20T03:00:18;100056.16;;;10.08;51.32
75026;BME280;63591;50.080;8.286;2022-12-20T03:02:44;100066.50;;;10.09;51.50
75026;BME280;63591;50.080;8.286;2022-12-20T03:05:32;100064.84;;;10.08;51.24
75026;BME280;63591;50.080;8.286;2022-12-20T03:07:59;100059.59;;;10.08;51.11
75026;BME280;63591;50.080;8.286;2022-12-20T03:10:24;100052.56;;;10.09;51.45
75026;BME280;63591;50.080;8.286;2022-12-20T03:12:50;100059.59;;;10.08;51.26
75026;BME280;63591;50.080;8.286;2022-12-20T03:15:15;100057.13;;;10.07;51.24
75026;BME280;63591;50.080;8.286;2022-12-20T03:17:41;100045.66;;;10.08;51.34
75026;BME280;63591;50.080;8.286;2022-12-20T03:20:06;100047.47;;;10.07;51.30
75026;BME280;63591;50.080;8.286;2022-12-20T03:22:33;100050.09;;;10.07;51.40
75026;BME280;63591;50.080;8.286;2022-12-20T03:24:59;100051.75;;;10.08;51.46
75026;BME280;63591;50.080;8.286;2022-12-20T03:27:24;100057.97;;;10.07;51.35
75026;BME280;63591;50.080;8.286;2022-12-20T03:29:52;100036.13;;;10.07;51.53
75026;BME280;63591;50.080;8.286;2022-12-20T03:32:17;100036.97;;;10.07;51.57
75026;BME280;63591;50.080;8.286;2022-12-20T03:34:43;100036.00;;;10.08;51.50
75026;BME280;63591;50.080;8.286;2022-12-20T03:37:08;100020.25;;;10.08;51.46
75026;BME280;63591;50.080;8.286;2022-12-20T03:39:34;100022.88;;;10.08;51.42
75026;BME280;63591;50.080;8.286;2022-12-20T03:41:59;100027.16;;;10.09;51.58
75026;BME280;63591;50.080;8.286;2022-12-20T03:44:24;100028.00;;;10.10;51.47
75026;BME280;63591;50.080;8.286;2022-12-20T03:46:50;100020.97;;;10.10;51.42
75026;BME280;63591;50.080;8.286;2022-12-20T03:49:15;100023.59;;;10.10;51.44
75026;BME280;63591;50.080;8.286;2022-12-20T03:51:41;100026.22;;;10.10;51.46
75026;BME280;63591;50.080;8.286;2022-12-20T03:54:06;100033.09;;;10.11;51.34
75026;BME280;63591;50.080;8.286;2022-12-20T03:56:31;100038.34;;;10.11;51.37
75026;BME280;63591;50.080;8.286;2022-12-20T03:58:57;100048.84;;;10.11;51.38
75026;BME280;63591;50.080;8.286;2022-12-20T04:01:26;100046.22;;;10.11;51.51
75026;BME280;63591;50.080;8.286;2022-12-20T04:03:53;100034.75;;;10.13;51.41
75026;BME280;63591;50.080;8.286;2022-12-20T04:06:19;100028.69;;;10.12;51.63
75026;BME280;63591;50.080;8.286;2022-12-20T04:08:45;100021.66;;;10.13;51.71
75026;BME280;63591;50.080;8.286;2022-12-20T04:11:10;100028.69;;;10.12;51.58
75026;BME280;63591;50.080;8.286;2022-12-20T04:13:47;100012.13;;;10.11;51.68
75026;BME280;63591;50.080;8.286;2022-12-20T04:16:14;100019.03;;;10.13;51.42
75026;BME280;63591;50.080;8.286;2022-12-20T04:18:41;100009.38;;;10.13;51.73
75026;BME280;63591;50.080;8.286;2022-12-20T04:21:08;100004.13;;;10.13;51.61
75026;BME280;63591;50.080;8.286;2022-12-20T04:23:37;99997.22;;;10.12;51.75
75026;BME280;63591;50.080;8.286;2022-12-20T04:26:05;99998.88;;;10.13;51.46
75026;BME280;63591;50.080;8.286;2022-12-20T04:28:30;99994.47;;;10.14;51.66
75026;BME280;63591;50.080;8.286;2022-12-20T04:30:56;99996.13;;;10.15;51.23
75026;BME280;63591;50.080;8.286;2022-12-20T04:33:22;99977.75;;;10.15;51.43
75026;BME280;63591;50.080;8.286;2022-12-20T04:35:48;99978.47;;;10.17;51.54
75026;BME280;63591;50.080;8.286;2022-12-20T04:38:13;99969.75;;;10.16;51.84
75026;BME280;63591;50.080;8.286;2022-12-20T04:40:39;99980.09;;;10.18;51.40
75026;BME280;63591;50.080;8.286;2022-12-20T04:43:04;99980.91;;;10.18;51.55
75026;BME280;63591;50.080;8.286;2022-12-20T04:45:29;99995.00;;;10.17;51.64
75026;BME280;63591;50.080;8.286;2022-12-20T04:47:55;100002.06;;;10.17;51.64
75026;BME280;63591;50.080;8.286;2022-12-20T04:50:20;99999.44;;;10.17;51.74
75026;BME280;63591;50.080;8.286;2022-12-20T04:52:46;100002.06;;;10.17;51.67
75026;BME280;63591;50.080;8.286;2022-12-20T04:55:30;100002.06;;;10.17;51.71
75026;BME280;63591;50.080;8.286;2022-12-20T04:57:55;99994.03;;;10.18;51.71
75026;BME280;63591;50.080;8.286;2022-12-20T05:00:21;100001.22;;;10.16;51.79
75026;BME280;63591;50.080;8.286;2022-12-20T05:02:46;99986.31;;;10.17;51.71
75026;BME280;63591;50.080;8.286;2022-12-20T05:05:12;99990.59;;;10.18;51.58
75026;BME280;63591;50.080;8.286;2022-12-20T05:07:38;99994.03;;;10.18;51.78
75026;BME280;63591;50.080;8.286;2022-12-20T05:10:04;99979.28;;;10.17;51.69
75026;BME280;63591;50.080;8.286;2022-12-20T05:12:29;99978.28;;;10.18;51.67
75026;BME280;63591;50.080;8.286;2022-12-20T05:14:54;99977.47;;;10.18;51.83
75026;BME280;63591;50.080;8.286;2022-12-20T05:17:20;99986.16;;;10.18;51.79
75026;BME280;63591;50.080;8.286;2022-12-20T05:19:45;99988.78;;;10.18;51.46
75026;BME280;63591;50.080;8.286;2022-12-20T05:22:10;99997.50;;;10.19;51.84
75026;BME280;63591;50.080;8.286;2022-12-20T05:24:54;99988.78;;;10.18;51.83
75026;BME280;63591;50.080;8.286;2022-12-20T05:27:38;99991.41;;;10.18;51.84
75026;BME280;63591;50.080;8.286;2022-12-20T05:30:04;99987.84;;;10.19;51.84
75026;BME280;63591;50.080;8.286;2022-12-20T05:32:29;99968.63;;;10.19;51.73
75026;BME280;63591;50.080;8.286;2022-12-20T05:34:54;99959.94;;;10.18;51.82
75026;BME280;63591;50.080;8.286;2022-12-20T05:37:20;99972.09;;;10.19;51.96
75026;BME280;63591;50.080;8.286;2022-12-20T05:39:46;99968.63;;;10.19;51.95
75026;BME280;63591;50.080;8.286;2022-12-20T05:42:11;99970.44;;;10.18;51.80
75026;BME280;63591;50.080;8.286;2022-12-20T05:44:36;99966.84;;;10.19;51.75
75026;BME280;63591;50.080;8.286;2022-12-20T05:47:02;99967.66;;;10.20;51.82
75026;BME280;63591;50.080;8.286;2022-12-20T05:49:27;99966.84;;;10.19;51.82
75026;BME280;63591;50.080;8.286;2022-12-20T05:51:52;99961.47;;;10.21;51.88
75026;BME280;63591;50.080;8.286;2022-12-20T05:54:18;99951.94;;;10.20;51.87
75026;BME280;63591;50.080;8.286;2022-12-20T05:56:43;99950.28;;;10.19;51.87
75026;BME280;63591;50.080;8.286;2022-12-20T05:59:08;99946.69;;;10.20;52.08
75026;BME280;63591;50.080;8.286;2022-12-20T06:01:34;99956.50;;;10.18;51.89
75026;BME280;63591;50.080;8.286;2022-12-20T06:03:59;99943.38;;;10.18;51.89
75026;BME280;63591;50.080;8.286;2022-12-20T06:06:25;99950.41;;;10.17;52.01
75026;BME280;63591;50.080;8.286;2022-12-20T06:08:50;99947.78;;;10.17;52.04
75026;BME280;63591;50.080;8.286;2022-12-20T06:11:15;99949.44;;;10.18;51.82
75026;BME280;63591;50.080;8.286;2022-12-20T06:13:41;99937.31;;;10.17;51.98
75026;BME280;63591;50.080;8.286;2022-12-20T06:16:06;99947.94;;;10.16;51.97
75026;BME280;63591;50.080;8.286;2022-12-20T06:18:31;99950.56;;;10.16;51.89
75026;BME280;63591;50.080;8.286;2022-12-20T06:20:57;99941.72;;;10.17;52.00
75026;BME280;63591;50.080;8.286;2022-12-20T06:23:23;99953.88;;;10.18;51.88
75026;BME280;63591;50.080;8.286;2022-12-20T06:25:48;99941.72;;;10.17;51.96
75026;BME280;63591;50.080;8.286;2022-12-20T06:28:14;99945.03;;;10.19;52.01
75026;BME280;63591;50.080;8.286;2022-12-20T06:30:51;99944.19;;;10.18;51.97
75026;BME280;63591;50.080;8.286;2022-12-20T06:33:16;99946.69;;;10.20;51.93
75026;BME280;63591;50.080;8.286;2022-12-20T06:35:42;99958.84;;;10.21;52.12
75026;BME280;63591;50.080;8.286;2022-12-20T06:38:07;99958.84;;;10.21;51.96
75026;BME280;63591;50.080;8.286;2022-12-20T06:40:32;99964.91;;;10.21;51.49
75026;BME280;63591;50.080;8.286;2022-12-20T06:42:57;99956.22;;;10.21;51.99
75026;BME280;63591;50.080;8.286;2022-12-20T06:45:23;99958.84;;;10.21;52.04
75026;BME280;63591;50.080;8.286;2022-12-20T06:47:48;99962.72;;;10.17;52.13
75026;BME280;63591;50.080;8.286;2022-12-20T06:50:13;99969.06;;;10.14;52.49
75026;BME280;63591;50.080;8.286;2022-12-20T06:52:39;99957.75;;;10.14;52.26
75026;BME280;63591;50.080;8.286;2022-12-20T06:55:04;99961.31;;;10.13;52.21
75026;BME280;63591;50.080;8.286;2022-12-20T06:57:30;99951.94;;;10.10;52.38
75026;BME280;63591;50.080;8.286;2022-12-20T06:59:55;99954.69;;;10.08;52.20
75026;BME280;63591;50.080;8.286;2022-12-20T07:02:20;99959.09;;;10.08;52.47
75026;BME280;63591;50.080;8.286;2022-12-20T07:04:46;99958.44;;;10.06;52.35
75026;BME280;63591;50.080;8.286;2022-12-20T07:07:12;99949.72;;;10.05;52.38
75026;BME280;63591;50.080;8.286;2022-12-20T07:09:37;99950.56;;;10.06;52.50
75026;BME280;63591;50.080;8.286;2022-12-20T07:12:06;99943.66;;;10.05;52.38
75026;BME280;63591;50.080;8.286;2022-12-20T07:14:31;99943.66;;;10.05;52.46
75026;BME280;63591;50.080;8.286;2022-12-20T07:16:56;99948.91;;;10.05;52.53
75026;BME280;63591;50.080;8.286;2022-12-20T07:19:22;99933.97;;;10.05;52.54
75026;BME280;63591;50.080;8.286;2022-12-20T07:21:47;99942.69;;;10.06;52.61
75026;BME280;63591;50.080;8.286;2022-12-20T07:24:13;99939.22;;;10.05;52.52
75026;BME280;63591;50.080;8.286;2022-12-20T07:26:38;99941.84;;;10.05;52.23
75026;BME280;63591;50.080;8.286;2022-12-20T07:29:03;99946.97;;;10.07;52.62
75026;BME280;63591;50.080;8.286;2022-12-20T07:31:29;99935.63;;;10.06;52.57
75026;BME280;63591;50.080;8.286;2022-12-20T07:33:54;99938.25;;;10.06;52.51
75026;BME280;63591;50.080;8.286;2022-12-20T07:36:19;99940.06;;;10.06;52.59
75026;BME280;63591;50.080;8.286;2022-12-20T07:38:45;99939.22;;;10.05;52.69
75026;BME280;63591;50.080;8.286;2022-12-20T07:41:13;99925.31;;;10.05;52.87
75026;BME280;63591;50.080;8.286;2022-12-20T07:43:39;99923.50;;;10.05;52.66
75026;BME280;63591;50.080;8.286;2022-12-20T07:46:05;99930.56;;;10.05;52.64
75026;BME280;63591;50.080;8.286;2022-12-20T07:48:31;99932.34;;;10.04;52.85
75026;BME280;63591;50.080;8.286;2022-12-20T07:51:01;99941.19;;;10.03;52.85
75026;BME280;63591;50.080;8.286;2022-12-20T07:53:29;99926.25;;;10.04;52.76
75026;BME280;63591;50.080;8.286;2022-12-20T07:55:56;99912.19;;;10.05;52.96
75026;BME280;63591;50.080;8.286;2022-12-20T07:58:22;99911.34;;;10.04;52.86
75026;BME280;63591;50.080;8.286;2022-12-20T08:00:48;99913.13;;;10.04;52.87
75026;BME280;63591;50.080;8.286;2022-12-20T08:03:18;99908.88;;;10.03;52.97
75026;BME280;63591;50.080;8.286;2022-12-20T08:05:47;99904.47;;;10.03;52.79
75026;BME280;63591;50.080;8.286;2022-12-20T08:08:16;99907.09;;;10.03;52.76
75026;BME280;63591;50.080;8.286;2022-12-20T08:10:42;99903.63;;;10.03;52.72
75026;BME280;63591;50.080;8.286;2022-12-20T08:13:08;99894.78;;;10.04;52.97
75026;BME280;63591;50.080;8.286;2022-12-20T08:15:34;99909.72;;;10.03;52.84
75026;BME280;63591;50.080;8.286;2022-12-20T08:18:00;99913.97;;;10.04;53.05
75026;BME280;63591;50.080;8.286;2022-12-20T08:20:26;99905.28;;;10.04;52.86
75026;BME280;63591;50.080;8.286;2022-12-20T08:22:51;99907.91;;;10.04;52.96
75026;BME280;63591;50.080;8.286;2022-12-20T08:25:17;99906.13;;;10.04;53.05
75026;BME280;63591;50.080;8.286;2022-12-20T08:27:42;99900.88;;;10.04;52.97
75026;BME280;63591;50.080;8.286;2022-12-20T08:30:09;99893.84;;;10.05;52.71
75026;BME280;63591;50.080;8.286;2022-12-20T08:32:35;99894.66;;;10.05;53.36
75026;BME280;63591;50.080;8.286;2022-12-20T08:35:00;99895.47;;;10.06;53.27
75026;BME280;63591;50.080;8.286;2022-12-20T08:37:26;99907.75;;;10.05;53.18
75026;BME280;63591;50.080;8.286;2022-12-20T08:39:51;99913.84;;;10.06;53.35
75026;BME280;63591;50.080;8.286;2022-12-20T08:42:16;99898.09;;;10.06;53.19
75026;BME280;63591;50.080;8.286;2022-12-20T08:44:42;99893.66;;;10.06;53.39
75026;BME280;63591;50.080;8.286;2022-12-20T08:47:08;99896.28;;;10.06;53.39
75026;BME280;63591;50.080;8.286;2022-12-20T08:49:34;99899.75;;;10.07;53.34
75026;BME280;63591;50.080;8.286;2022-12-20T08:51:59;99893.53;;;10.08;53.40
75026;BME280;63591;50.080;8.286;2022-12-20T08:54:25;99902.38;;;10.07;53.39
75026;BME280;63591;50.080;8.286;2022-12-20T08:56:51;99911.09;;;10.07;53.36
75026;BME280;63591;50.080;8.286;2022-12-20T08:59:16;99901.53;;;10.06;53.50
75026;BME280;63591;50.080;8.286;2022-12-20T09:01:42;99905.00;;;10.07;53.47
75026;BME280;63591;50.080;8.286;2022-12-20T09:04:09;99897.97;;;10.07;53.44
75026;BME280;63591;50.080;8.286;2022-12-20T09:06:34;99896.16;;;10.08;53.69
75026;BME280;63591;50.080;8.286;2022-12-20T09:09:00;99882.91;;;10.09;53.67
75026;BME280;63591;50.080;8.286;2022-12-20T09:11:26;99890.78;;;10.09;53.51
75026;BME280;63591;50.080;8.286;2022-12-20T09:13:54;99890.78;;;10.09;53.57
75026;BME280;63591;50.080;8.286;2022-12-20T09:16:22;99889.97;;;10.09;53.62
75026;BME280;63591;50.080;8.286;2022-12-20T09:18:49;99902.94;;;10.10;53.77
75026;BME280;63591;50.080;8.286;2022-12-20T09:21:14;99889.00;;;10.10;53.83
75026;BME280;63591;50.080;8.286;2022-12-20T09:23:40;99890.63;;;10.11;53.63
75026;BME280;63591;50.080;8.286;2022-12-20T09:26:08;99888.84;;;10.11;53.74
75026;BME280;63591;50.080;8.286;2022-12-20T09:28:34;99886.22;;;10.11;53.79
75026;BME280;63591;50.080;8.286;2022-12-20T09:31:01;99881.13;;;10.10;53.67
75026;BME280;63591;50.080;8.286;2022-12-20T09:33:28;99887.06;;;10.12;53.94
75026;BME280;63591;50.080;8.286;2022-12-20T09:35:55;99878.34;;;10.11;53.94
75026;BME280;63591;50.080;8.286;2022-12-20T09:38:20;99878.22;;;10.13;53.89
75026;BME280;63591;50.080;8.286;2022-12-20T09:40:48;99879.06;;;10.14;54.05
75026;BME280;63591;50.080;8.286;2022-12-20T09:43:16;99879.88;;;10.14;54.21
75026;BME280;63591;50.080;8.286;2022-12-20T09:45:44;99880.72;;;10.15;53.92
75026;BME280;63591;50.080;8.286;2022-12-20T09:48:23;99866.88;;;10.13;54.18
75026;BME280;63591;50.080;8.286;2022-12-20T09:56:38;99865.09;;;10.13;54.26
75026;BME280;63591;50.080;8.286;2022-12-20T09:59:10;99861.38;;;10.16;54.22
75026;BME280;63591;50.080;8.286;2022-12-20T10:01:37;99859.59;;;10.16;54.40
75026;BME280;63591;50.080;8.286;2022-12-20T10:04:06;99852.56;;;10.17;54.28
75026;BME280;63591;50.080;8.286;2022-12-20T10:13:01;99857.78;;;10.17;54.37
75026;BME280;63591;50.080;8.286;2022-12-20T10:15:31;99855.84;;;10.19;54.32
75026;BME280;63591;50.080;8.286;2022-12-20T10:18:16;99857.63;;;10.18;54.45
75026;BME280;63591;50.080;8.286;2022-12-20T10:21:07;99850.72;;;10.17;54.60
75026;BME280;63591;50.080;8.286;2022-12-20T10:23:59;99839.25;;;10.18;54.57
75026;BME280;63591;50.080;8.286;2022-12-20T10:26:26;99842.44;;;10.22;54.30
75026;BME280;63591;50.080;8.286;2022-12-20T10:28:51;99841.63;;;10.21;54.29
75026;BME280;63591;50.080;8.286;2022-12-20T10:31:17;99827.81;;;10.19;54.45
75026;BME280;63591;50.080;8.286;2022-12-20T10:33:44;99838.47;;;10.18;54.58
75026;BME280;63591;50.080;8.286;2022-12-20T10:38:56;99830.44;;;10.19;54.64
75026;BME280;63591;50.080;8.286;2022-12-20T10:41:27;99827.00;;;10.19;54.85
75026;BME280;63591;50.080;8.286;2022-12-20T10:44:02;99827.97;;;10.18;54.85
75026;BME280;63591;50.080;8.286;2022-12-20T10:46:46;99833.34;;;10.16;55.04
75026;BME280;63591;50.080;8.286;2022-12-20T10:49:33;99824.66;;;10.16;55.00
75026;BME280;63591;50.080;8.286;2022-12-20T10:54:44;99821.88;;;10.17;55.16
75026;BME280;63591;50.080;8.286;2022-12-20T10:57:23;99811.25;;;10.19;55.07
75026;BME280;63591;50.080;8.286;2022-12-20T10:59:52;99808.34;;;10.22;54.94
75026;BME280;63591;50.080;8.286;2022-12-20T11:02:32;99810.28;;;10.20;55.14
75026;BME280;63591;50.080;8.286;2022-12-20T11:05:09;99807.38;;;10.23;55.19
75026;BME280;63591;50.080;8.286;2022-12-20T11:07:55;99807.50;;;10.21;55.20
75026;BME280;63591;50.080;8.286;2022-12-20T11:10:23;99801.19;;;10.24;55.12
75026;BME280;63591;50.080;8.286;2022-12-20T11:13:00;99800.47;;;10.22;55.37
75026;BME280;63591;50.080;8.286;2022-12-20T11:15:34;99803.94;;;10.22;55.33
75026;BME280;63591;50.080;8.286;2022-12-20T11:23:38;99790.69;;;10.24;55.44
75026;BME280;63591;50.080;8.286;2022-12-20T11:26:34;99783.91;;;10.21;55.52
75026;BME280;63591;50.080;8.286;2022-12-20T11:29:23;99791.50;;;10.24;55.57
75026;BME280;63591;50.080;8.286;2022-12-20T11:42:17;99737.09;;;10.27;55.87
75026;BME280;63591;50.080;8.286;2022-12-20T11:50:16;99725.75;;;10.26;55.83
75026;BME280;63591;50.080;8.286;2022-12-20T11:52:51;99722.19;;;10.27;55.90
75026;BME280;63591;50.080;8.286;2022-12-20T11:55:23;99727.44;;;10.27;55.86
75026;BME280;63591;50.080;8.286;2022-12-20T11:57:59;99712.66;;;10.26;55.95
75026;BME280;63591;50.080;8.286;2022-12-20T12:00:26;99723.84;;;10.28;55.92
75026;BME280;63591;50.080;8.286;2022-12-20T12:03:11;99733.63;;;10.26;55.86
75026;BME280;63591;50.080;8.286;2022-12-20T12:05:45;99731.56;;;10.30;55.62
75026;BME280;63591;50.080;8.286;2022-12-20T12:11:16;99720.22;;;10.29;56.05
75026;BME280;63591;50.080;8.286;2022-12-20T12:13:42;99712.22;;;10.31;56.01
75026;BME280;63591;50.080;8.286;2022-12-20T12:16:25;99701.06;;;10.29;56.04
75026;BME280;63591;50.080;8.286;2022-12-20T12:18:51;99696.47;;;10.31;56.01
75026;BME280;63591;50.080;8.286;2022-12-20T12:26:34;99706.81;;;10.32;56.18
75026;BME280;63591;50.080;8.286;2022-12-20T12:29:03;99712.06;;;10.32;56.26
75026;BME280;63591;50.080;8.286;2022-12-20T12:37:33;99697.47;;;10.30;56.27
75026;BME280;63591;50.080;8.286;2022-12-20T12:45:13;99682.53;;;10.30;56.39
75026;BME280;63591;50.080;8.286;2022-12-20T12:47:46;99673.56;;;10.33;56.25
75026;BME280;63591;50.080;8.286;2022-12-20T12:50:35;99672.72;;;10.32;56.24
75026;BME280;63591;50.080;8.286;2022-12-20T12:53:19;99670.78;;;10.34;56.22
75026;BME280;63591;50.080;8.286;2022-12-20T12:55:50;99674.38;;;10.33;56.29
75026;BME280;63591;50.080;8.286;2022-12-20T13:00:49;99651.44;;;10.35;56.26
75026;BME280;63591;50.080;8.286;2022-12-20T13:03:19;99640.94;;;10.35;56.20
75026;BME280;63591;50.080;8.286;2022-12-20T13:11:40;99649.81;;;10.34;56.37
75026;BME280;63591;50.080;8.286;2022-12-20T13:21:56;99639.16;;;10.36;56.58
75026;BME280;63591;50.080;8.286;2022-12-20T13:24:31;99646.19;;;10.35;56.66
75026;BME280;63591;50.080;8.286;2022-12-20T13:27:00;99639.97;;;10.36;56.55
75026;BME280;63591;50.080;8.286;2022-12-20T13:29:32;99651.44;;;10.35;56.64
75026;BME280;63591;50.080;8.286;2022-12-20T13:31:58;99660.94;;;10.36;56.59
75026;BME280;63591;50.080;8.286;2022-12-20T13:34:52;99648.81;;;10.35;56.78
75026;BME280;63591;50.080;8.286;2022-12-20T13:40:19;99650.31;;;10.38;56.99
75026;BME280;63591;50.080;8.286;2022-12-20T13:42:46;99639.53;;;10.41;56.83
75026;BME280;63591;50.080;8.286;2022-12-20T13:45:15;99640.50;;;10.40;56.87
75026;BME280;63591;50.080;8.286;2022-12-20T13:47:44;99650.03;;;10.41;56.81
75026;BME280;63591;50.080;8.286;2022-12-20T13:50:39;99660.00;;;10.38;57.17
75026;BME280;63591;50.080;8.286;2022-12-20T13:53:15;99651.84;;;10.41;57.04
75026;BME280;63591;50.080;8.286;2022-12-20T13:55:41;99663.69;;;10.45;56.98
75026;BME280;63591;50.080;8.286;2022-12-20T13:58:34;99642.31;;;10.40;57.14
75026;BME280;63591;50.080;8.286;2022-12-20T14:01:04;99629.72;;;10.43;56.89
75026;BME280;63591;50.080;8.286;2022-12-20T14:03:31;99623.50;;;10.44;56.97
75026;BME280;63591;50.080;8.286;2022-12-20T14:06:00;99625.16;;;10.45;56.81
75026;BME280;63591;50.080;8.286;2022-12-20T14:08:31;99634.81;;;10.45;56.98
75026;BME280;63591;50.080;8.286;2022-12-20T14:11:26;99630.69;;;10.42;57.21
75026;BME280;63591;50.080;8.286;2022-12-20T14:14:00;99632.88;;;10.47;57.02
75026;BME280;63591;50.080;8.286;2022-12-20T14:16:31;99632.88;;;10.47;57.04
75026;BME280;63591;50.080;8.286;2022-12-20T14:21:22;99622.41;;;10.47;56.70
75026;BME280;63591;50.080;8.286;2022-12-20T14:23:51;99621.59;;;10.46;56.79
75026;BME280;63591;50.080;8.286;2022-12-20T14:26:21;99632.09;;;10.46;57.15
75026;BME280;63591;50.080;8.286;2022-12-20T14:28:50;99628.63;;;10.46;56.99
75026;BME280;63591;50.080;8.286;2022-12-20T14:36:30;99622.53;;;10.45;56.74
75026;BME280;63591;50.080;8.286;2022-12-20T14:38:56;99619.09;;;10.45;56.86
75026;BME280;63591;50.080;8.286;2022-12-20T14:41:28;99618.25;;;10.44;57.03
75026;BME280;63591;50.080;8.286;2022-12-20T14:43:55;99612.03;;;10.45;57.09